KAUO/AUO METAR and TAF weather

Enter ICAO airport designator
Station Type Date Time Source
KAUO METAR 2018/01/17 06:36 UTC NOAA

KAUO 170636Z AUTO 35011KT 1 3/4SM -SN BR BKN007 OVC011 M04/M05 A3039 RMK AO2 CIG 004V009 P0003 FZRANO


Station Type Date Time Source
KAUO Decoded METAR 2018/01/17 06:36 UTC NOAA

Auburn-Opelika Airport, AL, United States (KAUO) 32-37N 085-26W
Jan 17, 2018 - 01:36 AM EST / 2018.01.17 0636 UTC
Wind: from the N (350 degrees) at 13 MPH (11 KT):0
Visibility: 1 3/4 mile(s):0
Sky conditions: overcast
Weather: light snow; mist
Precipitation last hour: 0.03 inches
Temperature: 24 F (-4 C)
Windchill: 12 F (-11 C):1
Dew Point: 23 F (-5 C)
Relative Humidity: 92%
Pressure (altimeter): 30.39 in. Hg (1029 hPa)
ob: KAUO 170636Z AUTO 35011KT 1 3/4SM -SN BR BKN007 OVC011 M04/M05 A3039 RMK AO2 CIG 004V009 P0003 FZRANO
cycle: 6

Station Type Date Time Source
KAUO TAF UTC NOAA

Error!


Example: see airport list